Time;durP1;ratioP1;P1;durP2;ratioP2;P2;SDS_P1;SDS_P2;PMS_P1;PMS_P2;Temp;Humidity;BMP_temperature;BMP_pressure;BME280_temperature;BME280_humidity;BME280_pressure;Samples;Min_cycle;Max_cycle;Signal;HPM_P1;HPM_P2
2022/07/18 00:02:15;;;;;;;15.98;9.60;;;19.50;99.90;;;;;;4994601;28;20092;-74
2022/07/18 00:04:41;;;;;;;16.75;9.15;;;19.40;99.90;;;;;;5001299;28;20022;-74
2022/07/18 00:07:07;;;;;;;16.13;9.10;;;19.40;99.90;;;;;;5003971;28;20026;-75
2022/07/18 00:09:32;;;;;;;16.00;8.77;;;19.40;99.90;;;;;;5005048;28;20065;-74
2022/07/18 00:11:58;;;;;;;14.02;8.30;;;19.30;99.90;;;;;;5005018;28;20042;-74
2022/07/18 00:14:23;;;;;;;14.20;8.55;;;19.30;99.90;;;;;;5003494;28;20019;-75
2022/07/18 00:16:50;;;;;;;14.95;9.25;;;19.20;99.90;;;;;;4996986;28;20022;-74
2022/07/18 00:19:16;;;;;;;15.95;9.02;;;19.20;99.90;;;;;;5006465;28;20102;-74
2022/07/18 00:21:41;;;;;;;17.02;9.15;;;19.20;99.90;;;;;;4999157;28;20053;-74
2022/07/18 00:24:07;;;;;;;14.23;8.70;;;19.20;99.90;;;;;;5005754;28;20485;-75
2022/07/18 00:26:33;;;;;;;13.57;9.05;;;19.10;99.90;;;;;;4997979;28;20057;-74
2022/07/18 00:29:00;;;;;;;15.82;8.40;;;19.10;99.90;;;;;;5025349;28;20077;-75
2022/07/18 00:31:26;;;;;;;14.38;8.90;;;19.00;99.90;;;;;;5006117;28;20030;-75
2022/07/18 00:33:51;;;;;;;14.15;8.82;;;19.00;99.90;;;;;;4996853;28;20096;-75
2022/07/18 00:36:17;;;;;;;17.05;9.13;;;19.00;99.90;;;;;;5005721;28;20026;-75
2022/07/18 00:38:42;;;;;;;16.38;8.70;;;19.00;99.90;;;;;;4993709;28;20038;-76
2022/07/18 00:41:08;;;;;;;15.00;8.85;;;19.00;99.90;;;;;;5007044;28;20517;-75
2022/07/18 00:43:34;;;;;;;17.55;9.60;;;18.90;99.90;;;;;;5004724;28;20022;-75
2022/07/18 00:45:59;;;;;;;15.13;9.00;;;18.90;99.90;;;;;;5009682;28;20061;-75
2022/07/18 00:48:25;;;;;;;17.30;9.60;;;18.90;99.90;;;;;;4994791;28;20033;-74
2022/07/18 00:50:50;;;;;;;16.20;8.85;;;18.80;99.90;;;;;;4993689;28;20033;-75
2022/07/18 00:53:16;;;;;;;15.00;8.68;;;18.80;99.90;;;;;;4998184;28;20321;-75
2022/07/18 00:55:46;;;;;;;15.35;9.25;;;18.80;99.90;;;;;;5004079;28;20069;-75
2022/07/18 00:58:12;;;;;;;16.75;9.15;;;18.70;99.90;;;;;;5000494;28;20140;-75
2022/07/18 01:03:23;;;;;;;16.77;8.98;;;18.70;99.90;;;;;;5004175;28;20524;-75
2022/07/18 01:05:48;;;;;;;16.13;9.20;;;18.70;99.90;;;;;;4999724;28;20058;-75
2022/07/18 01:08:14;;;;;;;15.60;8.93;;;18.60;99.90;;;;;;4999234;28;20060;-75
2022/07/18 01:10:40;;;;;;;15.43;8.88;;;18.60;99.90;;;;;;5000780;28;20080;-75
2022/07/18 01:13:05;;;;;;;15.10;8.63;;;18.60;99.90;;;;;;5004969;28;20109;-75
2022/07/18 01:15:31;;;;;;;15.80;9.80;;;18.60;99.90;;;;;;4999269;28;20069;-74
2022/07/18 01:17:56;;;;;;;16.55;9.00;;;18.50;99.90;;;;;;5000244;28;20438;-75
2022/07/18 01:20:26;;;;;;;14.82;8.93;;;18.50;99.90;;;;;;4997732;28;20041;-75
2022/07/18 01:22:52;;;;;;;15.18;8.93;;;18.50;99.90;;;;;;5008047;28;20062;-75
2022/07/18 01:25:17;;;;;;;14.95;8.82;;;18.50;99.90;;;;;;4996671;28;20057;-75
2022/07/18 01:27:43;;;;;;;15.55;8.75;;;18.40;99.90;;;;;;4995153;28;20073;-75
2022/07/18 01:30:09;;;;;;;15.05;8.57;;;18.40;99.90;;;;;;5004698;28;20030;-75
2022/07/18 01:32:34;;;;;;;15.55;8.57;;;18.40;99.90;;;;;;4999758;28;20037;-75
2022/07/18 01:35:00;;;;;;;15.20;8.35;;;18.40;99.90;;;;;;5011535;28;20037;-75
2022/07/18 01:37:26;;;;;;;13.80;8.55;;;18.30;99.90;;;;;;5004577;28;20142;-76
2022/07/18 01:39:51;;;;;;;15.18;8.77;;;18.30;99.90;;;;;;5007375;28;20044;-76
2022/07/18 01:42:17;;;;;;;14.23;8.32;;;18.30;99.90;;;;;;5012349;28;20371;-75
2022/07/18 01:44:44;;;;;;;16.50;8.77;;;18.20;99.90;;;;;;5011499;28;20041;-75
2022/07/18 01:47:11;;;;;;;13.10;8.15;;;18.20;99.90;;;;;;5006558;28;20109;-75
2022/07/18 01:49:38;;;;;;;14.30;9.00;;;18.20;99.90;;;;;;5007060;28;20092;-75
2022/07/18 01:52:04;;;;;;;16.05;8.68;;;18.20;99.90;;;;;;5012278;28;20029;-75
2022/07/18 01:54:32;;;;;;;14.13;8.77;;;18.20;99.90;;;;;;5012554;28;20127;-75
2022/07/18 01:56:58;;;;;;;15.93;9.13;;;18.20;99.90;;;;;;5003758;28;20037;-75
2022/07/18 01:59:24;;;;;;;13.88;9.10;;;18.10;99.90;;;;;;5006784;28;20033;-75
2022/07/18 02:01:50;;;;;;;15.77;9.15;;;18.10;99.90;;;;;;5010436;28;20022;-76
2022/07/18 02:04:16;;;;;;;14.70;8.82;;;18.10;99.90;;;;;;5008068;28;20025;-75
2022/07/18 02:06:42;;;;;;;17.10;8.85;;;18.00;99.90;;;;;;5010331;28;20093;-75
2022/07/18 02:09:08;;;;;;;15.48;8.80;;;18.00;99.90;;;;;;5005109;28;20084;-75
2022/07/18 02:11:35;;;;;;;13.80;8.38;;;18.00;99.90;;;;;;4998222;28;20026;-75
2022/07/18 02:14:01;;;;;;;14.00;8.50;;;18.00;99.90;;;;;;5011778;28;20030;-75
2022/07/18 02:16:28;;;;;;;14.85;8.35;;;18.00;99.90;;;;;;5002110;28;20033;-76
2022/07/18 02:18:54;;;;;;;14.05;8.13;;;17.90;99.90;;;;;;5006985;28;20030;-75
2022/07/18 02:21:20;;;;;;;14.82;8.82;;;17.90;99.90;;;;;;4998980;28;20058;-76
2022/07/18 02:23:46;;;;;;;17.08;8.75;;;17.90;99.90;;;;;;4993520;28;20066;-76
2022/07/18 02:26:12;;;;;;;14.63;8.80;;;17.90;99.90;;;;;;5006853;28;20053;-75
2022/07/18 02:28:38;;;;;;;14.73;8.38;;;17.80;99.90;;;;;;5007618;28;20071;-76
2022/07/18 02:31:05;;;;;;;14.90;9.35;;;17.80;99.90;;;;;;5011301;28;20025;-75
2022/07/18 02:33:31;;;;;;;14.35;8.45;;;17.80;99.90;;;;;;5012101;28;20026;-75
2022/07/18 02:35:57;;;;;;;16.67;8.80;;;17.80;99.90;;;;;;4999243;28;20040;-76
2022/07/18 02:38:23;;;;;;;15.20;8.75;;;17.70;99.90;;;;;;5012171;28;20026;-75
2022/07/18 02:40:48;;;;;;;16.52;8.60;;;17.70;99.90;;;;;;5002614;28;20034;-76
2022/07/18 02:43:14;;;;;;;13.60;8.55;;;17.70;99.90;;;;;;5000908;28;20026;-74
2022/07/18 02:45:40;;;;;;;15.35;8.77;;;17.60;99.90;;;;;;5002884;28;20121;-75
2022/07/18 02:48:05;;;;;;;16.70;8.80;;;17.60;99.90;;;;;;5010280;28;20437;-75
2022/07/18 02:50:31;;;;;;;17.83;9.60;;;17.60;99.90;;;;;;5008012;28;20029;-75
2022/07/18 02:52:56;;;;;;;15.73;8.13;;;17.60;99.90;;;;;;5001799;28;20510;-75
2022/07/18 02:55:23;;;;;;;15.65;9.27;;;17.50;99.90;;;;;;5005345;28;20387;-76
2022/07/18 02:57:49;;;;;;;14.85;8.60;;;17.50;99.90;;;;;;5006529;28;20027;-75
2022/07/18 03:00:16;;;;;;;13.93;8.60;;;17.50;99.90;;;;;;5001203;28;20025;-75
2022/07/18 03:02:42;;;;;;;13.68;8.45;;;17.50;99.90;;;;;;5008186;28;20026;-75
2022/07/18 03:05:08;;;;;;;15.40;8.68;;;17.40;99.90;;;;;;5007753;28;20528;-75
2022/07/18 03:07:34;;;;;;;13.73;8.10;;;17.40;99.90;;;;;;5010076;28;20021;-75
2022/07/18 03:09:59;;;;;;;13.32;8.07;;;17.40;99.90;;;;;;5010332;28;20093;-75
2022/07/18 03:12:25;;;;;;;15.68;8.65;;;17.40;99.90;;;;;;5008232;28;20072;-74
2022/07/18 03:14:51;;;;;;;11.88;7.97;;;17.30;99.90;;;;;;5000173;28;20326;-75
2022/07/18 03:17:17;;;;;;;12.30;7.82;;;17.30;99.90;;;;;;4995528;28;20033;-74
2022/07/18 03:19:42;;;;;;;12.65;7.75;;;17.30;99.90;;;;;;4998356;28;20394;-75
2022/07/18 03:22:08;;;;;;;14.70;8.07;;;17.30;99.90;;;;;;5006453;28;20029;-76
2022/07/18 03:24:34;;;;;;;12.57;7.95;;;17.30;99.90;;;;;;5006908;28;20076;-75
2022/07/18 03:26:59;;;;;;;11.45;7.30;;;17.20;99.90;;;;;;5003930;28;20042;-75
2022/07/18 03:29:25;;;;;;;13.27;7.50;;;17.20;99.90;;;;;;5010270;28;20466;-75
2022/07/18 03:31:51;;;;;;;15.35;8.10;;;17.20;99.90;;;;;;4999004;28;20062;-75
2022/07/18 03:34:18;;;;;;;12.32;7.30;;;17.20;99.90;;;;;;5008479;28;20089;-75
2022/07/18 03:36:44;;;;;;;12.98;7.22;;;17.20;99.90;;;;;;5010241;28;20044;-75
2022/07/18 03:39:10;;;;;;;12.23;7.85;;;17.20;99.90;;;;;;4997665;28;20030;-75
2022/07/18 03:41:37;;;;;;;12.82;7.15;;;17.10;99.90;;;;;;5009295;28;20026;-75
2022/07/18 03:44:03;;;;;;;12.32;7.30;;;17.10;99.90;;;;;;5004368;28;20491;-75
2022/07/18 03:46:29;;;;;;;14.40;7.13;;;17.10;99.90;;;;;;5008299;28;20093;-75
2022/07/18 03:48:55;;;;;;;14.93;7.85;;;17.10;99.90;;;;;;5000990;28;20084;-75
2022/07/18 03:51:20;;;;;;;12.43;7.75;;;17.00;99.90;;;;;;5006158;28;20100;-75
2022/07/18 03:53:46;;;;;;;10.38;6.47;;;17.10;99.90;;;;;;5009782;28;20623;-76
2022/07/18 03:56:12;;;;;;;14.85;6.80;;;17.00;99.90;;;;;;5004413;28;20021;-75
2022/07/18 03:58:37;;;;;;;11.85;6.78;;;17.00;99.90;;;;;;5001383;28;20022;-75
2022/07/18 04:01:03;;;;;;;10.77;6.45;;;17.00;99.90;;;;;;4997224;28;20056;-76
2022/07/18 04:03:29;;;;;;;11.43;6.63;;;17.00;99.90;;;;;;4998265;28;20028;-75
2022/07/18 04:05:55;;;;;;;12.07;6.47;;;17.00;99.90;;;;;;5003920;28;20022;-74
2022/07/18 04:08:20;;;;;;;12.73;6.35;;;17.00;99.90;;;;;;5007839;28;20382;-75
2022/07/18 04:10:46;;;;;;;11.68;6.78;;;17.00;99.90;;;;;;4998829;28;20158;-75
2022/07/18 04:13:12;;;;;;;13.63;6.78;;;17.00;99.90;;;;;;5003097;28;20076;-76
2022/07/18 04:15:39;;;;;;;12.65;6.18;;;16.90;99.90;;;;;;5001181;28;20109;-74
2022/07/18 04:18:06;;;;;;;12.80;6.57;;;16.90;99.90;;;;;;5009107;28;20345;-75
2022/07/18 04:20:33;;;;;;;13.18;6.40;;;16.90;99.90;;;;;;5002047;28;20183;-75
2022/07/18 04:23:01;;;;;;;10.77;6.25;;;16.90;99.90;;;;;;4999082;28;20030;-75
2022/07/18 04:25:28;;;;;;;10.45;6.03;;;16.90;99.90;;;;;;4997255;28;20533;-74
2022/07/18 04:27:54;;;;;;;11.30;6.45;;;16.90;99.90;;;;;;5000234;28;20030;-75
2022/07/18 04:30:23;;;;;;;11.48;5.80;;;16.90;99.90;;;;;;5008360;28;20479;-76
2022/07/18 04:32:49;;;;;;;10.63;5.97;;;16.90;99.90;;;;;;4997576;28;20049;-75
2022/07/18 04:35:15;;;;;;;14.60;5.80;;;16.90;99.90;;;;;;5001197;28;20081;-75
2022/07/18 04:37:41;;;;;;;10.52;5.72;;;16.90;99.90;;;;;;5006778;28;20450;-75
2022/07/18 04:40:08;;;;;;;10.80;6.13;;;17.00;99.90;;;;;;5000844;28;20501;-75
2022/07/18 04:42:34;;;;;;;11.32;6.07;;;17.00;99.90;;;;;;5010952;28;20149;-75
2022/07/18 04:44:59;;;;;;;12.02;5.60;;;17.00;99.90;;;;;;5009439;28;20030;-75
2022/07/18 04:47:26;;;;;;;11.02;5.75;;;17.00;99.90;;;;;;5012824;28;20018;-76
2022/07/18 04:49:52;;;;;;;12.45;5.80;;;17.00;99.90;;;;;;5000798;28;20042;-76
2022/07/18 04:52:18;;;;;;;12.73;5.78;;;17.00;99.90;;;;;;5010021;28;20099;-75
2022/07/18 04:54:43;;;;;;;12.23;5.82;;;17.10;99.90;;;;;;5011898;28;20071;-76
2022/07/18 04:57:11;;;;;;;11.73;5.88;;;17.10;99.90;;;;;;5013128;28;20076;-76
2022/07/18 04:59:37;;;;;;;10.55;6.10;;;17.10;99.90;;;;;;5013917;28;20084;-76
2022/07/18 05:02:03;;;;;;;11.88;6.78;;;17.10;99.90;;;;;;5013303;28;20033;-76
2022/07/18 05:04:29;;;;;;;13.23;7.05;;;17.10;99.90;;;;;;5014477;28;20053;-76
2022/07/18 05:06:55;;;;;;;13.68;6.47;;;17.10;99.90;;;;;;5014035;28;20018;-76
2022/07/18 05:09:20;;;;;;;11.52;6.60;;;17.10;99.90;;;;;;5014724;28;20060;-76
2022/07/18 05:11:46;;;;;;;12.30;6.57;;;17.10;99.90;;;;;;5014503;28;20026;-76
2022/07/18 05:14:12;;;;;;;15.65;6.75;;;17.20;99.90;;;;;;5014026;28;20459;-75
2022/07/18 05:16:37;;;;;;;13.15;6.78;;;17.20;99.90;;;;;;4997232;28;20077;-75
2022/07/18 05:19:03;;;;;;;11.40;6.43;;;17.20;99.90;;;;;;5013822;28;20026;-76
2022/07/18 05:21:30;;;;;;;15.15;6.90;;;17.20;99.90;;;;;;5014029;28;20536;-76
2022/07/18 05:23:56;;;;;;;16.63;6.30;;;17.20;99.90;;;;;;5000188;28;20541;-76
2022/07/18 05:26:21;;;;;;;13.90;6.13;;;17.30;99.90;;;;;;5013767;28;20073;-76
2022/07/18 05:28:47;;;;;;;12.13;6.65;;;17.30;99.90;;;;;;5013912;28;20022;-76
2022/07/18 05:31:13;;;;;;;11.95;6.03;;;17.40;99.90;;;;;;5003531;28;20025;-76
2022/07/18 05:33:38;;;;;;;12.15;6.75;;;17.40;99.90;;;;;;5013701;28;20026;-76
2022/07/18 05:36:04;;;;;;;11.73;6.07;;;17.50;99.90;;;;;;5013782;28;20386;-76
2022/07/18 05:38:30;;;;;;;12.15;5.85;;;17.50;99.90;;;;;;5013633;28;20470;-76
2022/07/18 05:40:56;;;;;;;14.18;5.93;;;17.50;99.90;;;;;;4999872;28;20043;-76
2022/07/18 05:43:21;;;;;;;14.60;6.00;;;17.60;99.90;;;;;;5013957;28;20413;-75
2022/07/18 05:45:47;;;;;;;13.70;6.28;;;17.60;99.90;;;;;;5012398;28;20481;-75
2022/07/18 05:48:12;;;;;;;12.20;6.32;;;17.70;99.90;;;;;;5014508;28;20021;-76
2022/07/18 05:50:38;;;;;;;13.13;6.45;;;17.70;99.90;;;;;;5014130;28;20044;-76
2022/07/18 05:53:04;;;;;;;10.55;5.97;;;17.80;99.90;;;;;;5013546;28;20446;-75
2022/07/18 05:55:29;;;;;;;11.35;6.03;;;17.80;99.90;;;;;;5013781;28;20025;-76
2022/07/18 05:57:55;;;;;;;10.95;5.75;;;17.90;99.90;;;;;;5013113;28;20032;-76
2022/07/18 06:00:21;;;;;;;15.50;5.88;;;18.00;99.90;;;;;;5011766;28;20022;-76
2022/07/18 06:02:48;;;;;;;13.07;5.70;;;18.10;99.90;;;;;;5013539;28;20441;-76
2022/07/18 06:05:14;;;;;;;13.82;5.60;;;18.20;99.90;;;;;;5012200;28;20022;-76
2022/07/18 06:07:40;;;;;;;11.10;5.43;;;18.30;99.90;;;;;;5013636;28;20026;-75
2022/07/18 06:10:06;;;;;;;15.48;5.35;;;18.40;99.90;;;;;;5012894;28;20571;-76
2022/07/18 06:12:32;;;;;;;17.50;5.20;;;18.40;99.90;;;;;;5012927;28;20026;-75
2022/07/18 06:14:59;;;;;;;15.95;5.05;;;18.50;99.90;;;;;;5011766;28;20030;-75
2022/07/18 06:17:25;;;;;;;10.27;4.28;;;18.60;99.90;;;;;;5013508;28;20030;-75
2022/07/18 06:19:51;;;;;;;12.35;4.68;;;18.70;99.90;;;;;;5013718;28;20456;-76
2022/07/18 06:22:17;;;;;;;14.02;4.40;;;18.90;99.90;;;;;;5011418;28;20026;-76
2022/07/18 06:24:42;;;;;;;15.73;4.28;;;19.00;99.90;;;;;;5001908;28;20030;-76
2022/07/18 06:27:08;;;;;;;12.63;4.18;;;19.10;99.90;;;;;;5012725;28;20509;-76
2022/07/18 06:29:34;;;;;;;11.82;3.90;;;19.20;99.90;;;;;;5007917;28;20045;-76
2022/07/18 06:31:59;;;;;;;13.00;3.60;;;19.30;99.90;;;;;;5013813;28;20018;-76
2022/07/18 06:34:25;;;;;;;13.45;3.97;;;19.40;99.90;;;;;;5012954;28;20493;-75
2022/07/18 06:36:50;;;;;;;10.45;3.75;;;19.50;99.90;;;;;;5002671;28;20022;-75
2022/07/18 06:39:18;;;;;;;18.23;3.70;;;19.60;99.90;;;;;;5008846;28;20034;-76
2022/07/18 06:41:44;;;;;;;13.32;3.90;;;19.70;99.90;;;;;;5007952;28;20415;-75
2022/07/18 06:44:09;;;;;;;22.00;3.95;;;19.80;99.90;;;;;;5005156;28;20022;-75
2022/07/18 06:46:36;;;;;;;13.93;3.75;;;19.90;99.90;;;;;;4992794;28;20030;-76
2022/07/18 06:49:02;;;;;;;11.77;3.67;;;20.00;99.90;;;;;;5004984;28;20474;-76
2022/07/18 06:51:28;;;;;;;10.55;3.65;;;20.20;99.90;;;;;;5010551;28;20018;-77
2022/07/18 06:53:54;;;;;;;10.45;3.30;;;20.40;99.90;;;;;;5012223;28;20495;-75
2022/07/18 06:56:20;;;;;;;9.57;3.47;;;20.50;99.90;;;;;;5012460;28;20018;-76
2022/07/18 06:58:48;;;;;;;7.88;3.25;;;20.70;99.90;;;;;;5002618;28;20034;-75
2022/07/18 07:01:16;;;;;;;10.18;2.85;;;20.80;99.90;;;;;;5007336;28;20026;-75
2022/07/18 07:03:41;;;;;;;8.70;3.13;;;21.00;99.90;;;;;;5012294;28;20354;-76
2022/07/18 07:06:07;;;;;;;7.80;2.92;;;21.20;99.20;;;;;;5010915;28;20026;-75
2022/07/18 07:08:33;;;;;;;9.90;3.28;;;21.30;98.10;;;;;;5011350;28;20052;-76
2022/07/18 07:10:59;;;;;;;9.23;3.13;;;21.50;97.30;;;;;;5011817;28;20017;-76
2022/07/18 07:13:25;;;;;;;10.45;3.10;;;21.70;96.20;;;;;;5006101;28;20384;-75
2022/07/18 07:15:50;;;;;;;10.70;3.00;;;21.90;94.80;;;;;;5011827;28;20080;-75
2022/07/18 07:18:16;;;;;;;8.38;2.90;;;22.10;93.80;;;;;;5011858;28;20026;-76
2022/07/18 07:20:42;;;;;;;11.23;2.85;;;22.20;92.80;;;;;;5010278;28;20462;-76
2022/07/18 07:23:07;;;;;;;11.25;2.70;;;22.40;91.90;;;;;;5002468;28;20125;-75
2022/07/18 07:25:33;;;;;;;14.05;3.08;;;22.60;90.80;;;;;;5006734;28;20049;-75
2022/07/18 07:27:59;;;;;;;8.93;3.00;;;22.70;88.80;;;;;;5009799;28;20462;-75
2022/07/18 07:30:25;;;;;;;11.07;3.38;;;22.90;86.50;;;;;;5011408;28;20026;-75
2022/07/18 07:32:51;;;;;;;9.15;3.25;;;23.00;83.60;;;;;;5011351;28;20049;-75
2022/07/18 07:35:17;;;;;;;10.75;3.67;;;23.20;82.00;;;;;;5010403;28;20461;-75
2022/07/18 07:37:49;;;;;;;9.68;3.58;;;23.30;79.90;;;;;;5011529;28;20444;-75
2022/07/18 07:40:16;;;;;;;9.00;3.70;;;23.50;78.20;;;;;;5001549;28;20026;-75
2022/07/18 07:42:42;;;;;;;10.20;3.83;;;23.60;77.50;;;;;;5005908;28;20478;-75
2022/07/18 07:45:08;;;;;;;7.40;3.95;;;23.80;76.90;;;;;;5011705;28;20022;-75
2022/07/18 07:47:36;;;;;;;12.20;3.70;;;24.00;76.20;;;;;;5011136;28;20072;-75
2022/07/18 07:50:03;;;;;;;14.27;3.97;;;24.10;74.90;;;;;;5011274;28;20494;-75
2022/07/18 07:52:29;;;;;;;13.57;3.90;;;24.20;73.90;;;;;;5011253;28;20028;-75
2022/07/18 07:54:55;;;;;;;12.18;4.03;;;24.40;72.90;;;;;;5011328;28;20013;-76
2022/07/18 07:57:21;;;;;;;8.60;4.25;;;24.60;70.60;;;;;;5005792;28;20029;-76
2022/07/18 07:59:46;;;;;;;12.48;4.22;;;24.70;69.10;;;;;;5008332;28;20029;-75
2022/07/18 08:02:13;;;;;;;10.68;4.25;;;24.80;68.10;;;;;;5011038;28;20041;-75
2022/07/18 08:04:39;;;;;;;10.13;4.47;;;25.00;67.90;;;;;;5011016;28;20041;-75
2022/07/18 08:07:04;;;;;;;8.75;4.22;;;25.10;66.10;;;;;;5011437;28;20018;-75
2022/07/18 08:09:30;;;;;;;11.45;4.70;;;25.20;64.30;;;;;;5011034;28;20025;-74
2022/07/18 08:11:56;;;;;;;9.70;4.53;;;25.40;63.70;;;;;;5009280;28;20616;-75
2022/07/18 08:14:21;;;;;;;11.02;4.63;;;25.50;63.30;;;;;;5010821;28;20029;-75
2022/07/18 08:16:47;;;;;;;11.20;4.68;;;25.60;62.80;;;;;;5007587;28;20146;-75
2022/07/18 08:19:12;;;;;;;10.63;4.57;;;25.70;62.50;;;;;;4990853;28;20402;-75
2022/07/18 08:21:38;;;;;;;11.77;4.60;;;25.90;62.30;;;;;;4992016;28;20455;-75
2022/07/18 08:24:04;;;;;;;13.50;4.65;;;26.00;62.20;;;;;;4996821;28;20034;-75
2022/07/18 08:26:30;;;;;;;16.23;4.43;;;26.10;61.50;;;;;;5009738;28;20054;-76
2022/07/18 08:28:56;;;;;;;10.02;4.45;;;26.30;60.10;;;;;;5010574;28;20048;-75
2022/07/18 08:31:21;;;;;;;9.77;3.90;;;26.30;59.60;;;;;;5010669;28;20022;-75
2022/07/18 08:33:47;;;;;;;9.55;4.25;;;26.40;59.40;;;;;;5010607;28;20497;-75
2022/07/18 08:36:13;;;;;;;20.15;4.50;;;26.60;58.90;;;;;;5010563;28;20486;-74
2022/07/18 08:38:40;;;;;;;12.13;4.70;;;26.70;58.80;;;;;;5010960;28;20030;-75
2022/07/18 08:41:06;;;;;;;11.45;4.13;;;26.80;59.10;;;;;;5008862;28;20034;-75
2022/07/18 08:43:32;;;;;;;10.15;4.30;;;26.90;58.60;;;;;;5010537;28;20064;-74
2022/07/18 08:46:06;;;;;;;15.00;4.45;;;27.00;58.70;;;;;;5010449;28;20073;-75
2022/07/18 08:48:32;;;;;;;14.13;4.28;;;27.10;58.40;;;;;;5010511;28;20056;-75
2022/07/18 08:51:00;;;;;;;7.75;3.75;;;27.20;58.40;;;;;;5010311;28;20587;-75
2022/07/18 08:53:26;;;;;;;15.43;4.55;;;27.40;58.20;;;;;;5010538;28;20026;-74
2022/07/18 08:55:52;;;;;;;12.27;3.90;;;27.50;57.30;;;;;;5007731;28;20026;-75
2022/07/18 08:58:18;;;;;;;11.95;3.50;;;27.50;56.60;;;;;;5004878;28;20069;-75
2022/07/18 09:00:44;;;;;;;10.18;3.70;;;27.60;56.70;;;;;;5001419;28;20037;-76
2022/07/18 09:03:10;;;;;;;10.07;3.83;;;27.80;55.90;;;;;;5010785;28;20025;-75
2022/07/18 09:05:37;;;;;;;13.98;4.05;;;28.00;55.80;;;;;;5010467;28;20141;-75
2022/07/18 09:08:09;;;;;;;11.43;3.80;;;28.10;54.90;;;;;;5010222;28;20053;-75
2022/07/18 09:10:41;;;;;;;10.68;3.55;;;28.10;54.10;;;;;;5008416;28;20491;-76
2022/07/18 09:13:07;;;;;;;8.32;3.95;;;28.20;53.40;;;;;;5005245;28;20033;-74
2022/07/18 09:15:33;;;;;;;6.03;2.70;;;28.30;52.90;;;;;;5010657;28;20022;-74
2022/07/18 09:17:58;;;;;;;9.80;3.60;;;28.50;53.20;;;;;;5010268;28;20022;-75
2022/07/18 09:20:24;;;;;;;9.20;3.60;;;28.60;52.90;;;;;;5010090;28;20030;-75
2022/07/18 09:22:50;;;;;;;9.73;3.22;;;28.70;52.80;;;;;;5003642;28;20478;-75
2022/07/18 09:25:21;;;;;;;11.00;3.15;;;28.90;52.00;;;;;;5001165;28;20077;-75
2022/07/18 09:27:49;;;;;;;10.63;2.90;;;29.00;50.80;;;;;;5010202;28;20121;-75
2022/07/18 09:30:20;;;;;;;7.53;2.90;;;29.00;50.50;;;;;;5010333;28;20030;-75
2022/07/18 09:32:52;;;;;;;8.60;2.72;;;29.10;49.60;;;;;;5012439;28;20076;-75
2022/07/18 09:35:26;;;;;;;6.50;2.47;;;29.20;49.40;;;;;;5013657;28;20100;-74
2022/07/18 09:38:13;;;;;;;11.05;3.40;;;29.30;49.60;;;;;;5013735;28;20045;-75
2022/07/18 09:40:47;;;;;;;10.27;3.10;;;29.40;49.10;;;;;;5013393;28;20095;-74
2022/07/18 09:43:16;;;;;;;6.05;3.10;;;29.50;49.00;;;;;;5000803;28;20112;-75
2022/07/18 09:45:48;;;;;;;6.80;2.85;;;29.60;49.00;;;;;;5013808;28;20160;-75
2022/07/18 09:48:27;;;;;;;7.63;2.88;;;29.70;48.90;;;;;;5013447;28;20083;-75
2022/07/18 09:51:00;;;;;;;10.23;2.65;;;29.90;48.30;;;;;;5013440;28;20022;-75
2022/07/18 09:53:29;;;;;;;9.07;2.85;;;30.10;48.00;;;;;;5013203;28;20026;-75
2022/07/18 09:55:57;;;;;;;7.43;3.05;;;30.10;47.40;;;;;;5001511;28;20030;-74
2022/07/18 09:58:26;;;;;;;8.85;2.75;;;30.10;47.40;;;;;;5007300;28;20164;-74
2022/07/18 10:00:53;;;;;;;7.53;2.55;;;30.30;47.20;;;;;;4993759;28;20034;-75
2022/07/18 10:03:20;;;;;;;9.00;2.75;;;30.50;47.10;;;;;;4997885;28;20025;-75
2022/07/18 10:05:48;;;;;;;9.38;2.90;;;30.60;46.90;;;;;;5011741;28;20033;-75
2022/07/18 10:08:16;;;;;;;7.65;2.72;;;30.80;46.80;;;;;;5011609;28;20030;-74
2022/07/18 10:10:46;;;;;;;10.73;3.10;;;30.90;46.80;;;;;;5011278;28;20120;-74
2022/07/18 10:13:12;;;;;;;6.63;2.70;;;31.00;46.10;;;;;;5012801;28;20029;-75
2022/07/18 10:15:40;;;;;;;9.50;3.10;;;31.10;45.40;;;;;;5012874;28;20041;-75
2022/07/18 10:18:09;;;;;;;8.80;2.70;;;31.20;44.80;;;;;;5013166;28;20025;-75
2022/07/18 10:20:41;;;;;;;9.48;3.08;;;31.30;44.70;;;;;;5012651;28;20473;-75
2022/07/18 10:23:16;;;;;;;11.55;3.00;;;31.40;44.40;;;;;;5003915;28;20026;-75
2022/07/18 10:25:42;;;;;;;9.65;3.00;;;31.50;44.50;;;;;;5007472;28;20057;-74
2022/07/18 10:28:11;;;;;;;12.80;3.05;;;31.60;44.00;;;;;;5012846;28;20034;-75
2022/07/18 10:30:40;;;;;;;6.57;3.00;;;31.70;43.60;;;;;;5012351;28;20038;-74
2022/07/18 10:33:36;;;;;;;13.40;3.05;;;31.70;43.00;;;;;;5012515;28;20053;-75
2022/07/18 10:36:11;;;;;;;9.07;3.13;;;31.70;42.70;;;;;;5012438;28;20022;-75
2022/07/18 10:38:38;;;;;;;12.02;2.88;;;31.80;42.50;;;;;;5012554;28;20033;-75
2022/07/18 10:41:12;;;;;;;13.43;3.30;;;31.90;42.80;;;;;;5009112;28;20026;-74
2022/07/18 10:43:42;;;;;;;7.23;2.97;;;31.90;42.40;;;;;;5012281;28;20033;-74
2022/07/18 10:46:09;;;;;;;9.25;3.13;;;31.90;41.90;;;;;;5012189;28;20022;-75
2022/07/18 10:48:35;;;;;;;10.68;3.45;;;31.90;41.70;;;;;;5012434;28;20063;-75
2022/07/18 10:51:00;;;;;;;8.32;3.28;;;31.90;42.00;;;;;;5012621;28;20017;-74
2022/07/18 10:54:01;;;;;;;9.82;3.42;;;32.00;41.40;;;;;;5012237;28;20389;-75
2022/07/18 10:56:35;;;;;;;8.10;3.30;;;32.10;40.90;;;;;;5012032;28;20034;-74
2022/07/18 10:59:18;;;;;;;12.73;3.05;;;32.20;41.70;;;;;;5012226;28;20026;-74
2022/07/18 11:01:56;;;;;;;13.60;3.40;;;32.40;41.00;;;;;;5011805;28;20062;-74
2022/07/18 11:04:37;;;;;;;7.57;3.05;;;32.40;40.50;;;;;;5012325;28;20030;-74
2022/07/18 11:07:14;;;;;;;10.68;3.15;;;32.40;40.30;;;;;;5011885;28;20018;-74
2022/07/18 11:09:46;;;;;;;8.25;2.88;;;32.50;40.80;;;;;;5002478;28;20064;-74
2022/07/18 11:12:24;;;;;;;8.75;3.13;;;32.60;41.30;;;;;;5012077;28;20093;-74
2022/07/18 11:15:05;;;;;;;13.60;3.60;;;32.60;40.50;;;;;;5011669;28;20026;-74
2022/07/18 11:18:00;;;;;;;11.02;2.97;;;32.60;40.00;;;;;;5011601;28;20018;-74
2022/07/18 11:20:42;;;;;;;10.55;3.28;;;32.80;39.70;;;;;;5011514;28;20572;-74
2022/07/18 11:23:41;;;;;;;8.38;3.22;;;32.80;39.80;;;;;;5002569;28;20049;-74
2022/07/18 11:26:14;;;;;;;14.57;3.00;;;32.80;39.90;;;;;;5011098;28;20045;-74
2022/07/18 11:28:41;;;;;;;8.52;3.05;;;32.80;40.10;;;;;;5014188;28;20022;-74
2022/07/18 11:31:09;;;;;;;9.73;3.22;;;32.80;40.10;;;;;;5001097;28;20109;-75
2022/07/18 11:33:39;;;;;;;8.52;3.00;;;32.90;39.70;;;;;;5004654;28;20426;-74
2022/07/18 11:36:10;;;;;;;11.40;2.83;;;33.00;39.60;;;;;;5014190;28;20033;-75
2022/07/18 11:38:38;;;;;;;9.43;3.40;;;33.20;39.10;;;;;;5005371;28;20026;-74
2022/07/18 11:41:05;;;;;;;64.22;45.63;;;33.30;39.40;;;;;;5006102;28;20037;-74
2022/07/18 11:43:30;;;;;;;21.50;10.95;;;33.40;39.30;;;;;;5016139;28;20456;-73
2022/07/18 11:46:00;;;;;;;17.35;8.93;;;33.40;38.50;;;;;;5002886;28;20042;-73
2022/07/18 11:48:28;;;;;;;11.30;3.10;;;33.30;38.80;;;;;;4998040;28;20026;-74
2022/07/18 11:50:53;;;;;;;10.80;3.50;;;33.30;38.90;;;;;;5022086;28;20117;-75
2022/07/18 11:53:19;;;;;;;11.13;3.28;;;33.30;38.50;;;;;;4997715;28;20057;-73
2022/07/18 11:55:45;;;;;;;12.48;3.33;;;33.30;38.10;;;;;;5008812;28;20021;-74
2022/07/18 11:58:13;;;;;;;153.38;129.25;;;33.30;37.90;;;;;;5012577;28;20022;-75
2022/07/18 12:00:39;;;;;;;23.50;17.92;;;33.40;38.20;;;;;;5007592;28;20030;-74
2022/07/18 12:03:20;;;;;;;7.43;3.38;;;33.50;38.40;;;;;;5014211;28;20030;-73
2022/07/18 12:05:49;;;;;;;10.27;3.40;;;33.60;37.30;;;;;;5008079;28;20037;-74
2022/07/18 12:08:24;;;;;;;7.82;3.33;;;33.60;37.80;;;;;;5017190;28;20745;-74
2022/07/18 12:11:17;;;;;;;8.63;3.25;;;33.70;37.60;;;;;;5015876;28;20029;-74
2022/07/18 12:13:57;;;;;;;8.23;3.58;;;34.00;36.90;;;;;;5005165;28;20371;-74
2022/07/18 12:16:26;;;;;;;6.90;3.42;;;34.00;36.80;;;;;;5017921;28;20061;-74
2022/07/18 12:18:54;;;;;;;8.18;3.10;;;34.00;36.60;;;;;;5017654;28;20026;-74
2022/07/18 12:21:20;;;;;;;6.32;3.33;;;34.10;37.00;;;;;;5016269;28;20034;-74
2022/07/18 12:23:45;;;;;;;7.78;3.10;;;34.10;36.50;;;;;;5001411;28;20090;-75
2022/07/18 12:26:29;;;;;;;8.23;3.15;;;34.20;35.90;;;;;;5010932;28;20425;-74
2022/07/18 12:29:08;;;;;;;7.05;3.40;;;34.20;35.90;;;;;;5012334;28;20026;-74
2022/07/18 12:31:38;;;;;;;8.63;3.40;;;34.40;35.50;;;;;;5017075;28;20034;-74
2022/07/18 12:34:11;;;;;;;8.23;3.70;;;34.50;35.50;;;;;;5018045;28;20022;-74
2022/07/18 12:36:55;;;;;;;6.70;3.30;;;34.60;35.30;;;;;;5017651;28;20052;-74
2022/07/18 12:39:31;;;;;;;11.15;4.60;;;34.70;35.00;;;;;;5016395;28;20046;-74
2022/07/18 12:41:59;;;;;;;29.77;23.92;;;34.70;34.20;;;;;;5016521;28;20033;-75
2022/07/18 12:44:26;;;;;;;5.85;3.47;;;34.60;34.00;;;;;;5017574;28;20069;-74